sensor_id;sensor_type;location;lat;lon;timestamp;P1;durP1;ratioP1;P2;durP2;ratioP2
56171;SDS011;42052;41.634;-0.946;2023-04-15T00:02:39;4.13;;;2.30;;
56171;SDS011;42052;41.634;-0.946;2023-04-15T00:05:26;5.03;;;1.77;;
56171;SDS011;42052;41.634;-0.946;2023-04-15T00:08:14;4.57;;;1.90;;
56171;SDS011;42052;41.634;-0.946;2023-04-15T00:11:00;5.63;;;2.05;;
56171;SDS011;42052;41.634;-0.946;2023-04-15T00:13:49;4.82;;;2.00;;
56171;SDS011;42052;41.634;-0.946;2023-04-15T00:16:36;6.18;;;2.17;;
56171;SDS011;42052;41.634;-0.946;2023-04-15T00:19:22;6.53;;;2.10;;
56171;SDS011;42052;41.634;-0.946;2023-04-15T00:22:09;4.55;;;1.83;;
56171;SDS011;42052;41.634;-0.946;2023-04-15T00:24:56;5.53;;;1.80;;
56171;SDS011;42052;41.634;-0.946;2023-04-15T00:27:43;4.60;;;1.88;;
56171;SDS011;42052;41.634;-0.946;2023-04-15T00:30:29;5.13;;;2.00;;
56171;SDS011;42052;41.634;-0.946;2023-04-15T00:33:15;7.97;;;2.03;;
56171;SDS011;42052;41.634;-0.946;2023-04-15T00:36:02;4.07;;;1.73;;
56171;SDS011;42052;41.634;-0.946;2023-04-15T00:38:50;3.70;;;1.75;;
56171;SDS011;42052;41.634;-0.946;2023-04-15T00:41:36;6.22;;;2.10;;
56171;SDS011;42052;41.634;-0.946;2023-04-15T00:44:25;4.70;;;2.10;;
56171;SDS011;42052;41.634;-0.946;2023-04-15T00:47:13;3.90;;;1.88;;
56171;SDS011;42052;41.634;-0.946;2023-04-15T00:50:00;4.35;;;1.80;;
56171;SDS011;42052;41.634;-0.946;2023-04-15T00:52:46;4.47;;;1.60;;
56171;SDS011;42052;41.634;-0.946;2023-04-15T00:55:33;4.72;;;1.75;;
56171;SDS011;42052;41.634;-0.946;2023-04-15T00:58:20;3.85;;;1.80;;
56171;SDS011;42052;41.634;-0.946;2023-04-15T01:01:07;4.85;;;2.03;;
56171;SDS011;42052;41.634;-0.946;2023-04-15T01:03:55;6.32;;;1.85;;
56171;SDS011;42052;41.634;-0.946;2023-04-15T01:06:44;4.30;;;1.75;;
56171;SDS011;42052;41.634;-0.946;2023-04-15T01:09:31;4.40;;;1.83;;
56171;SDS011;42052;41.634;-0.946;2023-04-15T01:12:17;6.13;;;1.92;;
56171;SDS011;42052;41.634;-0.946;2023-04-15T01:15:05;5.95;;;1.52;;
56171;SDS011;42052;41.634;-0.946;2023-04-15T01:17:52;4.00;;;1.67;;
56171;SDS011;42052;41.634;-0.946;2023-04-15T01:20:39;4.78;;;1.80;;
56171;SDS011;42052;41.634;-0.946;2023-04-15T01:23:25;5.50;;;1.90;;
56171;SDS011;42052;41.634;-0.946;2023-04-15T01:26:11;3.90;;;1.80;;
56171;SDS011;42052;41.634;-0.946;2023-04-15T01:28:58;6.00;;;1.98;;
56171;SDS011;42052;41.634;-0.946;2023-04-15T01:31:48;6.10;;;1.83;;
56171;SDS011;42052;41.634;-0.946;2023-04-15T01:34:36;4.95;;;1.95;;
56171;SDS011;42052;41.634;-0.946;2023-04-15T01:37:22;5.43;;;1.90;;
56171;SDS011;42052;41.634;-0.946;2023-04-15T01:40:09;3.88;;;1.75;;
56171;SDS011;42052;41.634;-0.946;2023-04-15T01:42:55;5.13;;;1.63;;
56171;SDS011;42052;41.634;-0.946;2023-04-15T01:45:42;5.25;;;1.92;;
56171;SDS011;42052;41.634;-0.946;2023-04-15T01:48:28;5.15;;;1.80;;
56171;SDS011;42052;41.634;-0.946;2023-04-15T01:51:14;4.63;;;1.92;;
56171;SDS011;42052;41.634;-0.946;2023-04-15T01:54:01;5.82;;;2.10;;
56171;SDS011;42052;41.634;-0.946;2023-04-15T01:56:47;5.65;;;1.80;;
56171;SDS011;42052;41.634;-0.946;2023-04-15T01:59:33;5.18;;;1.80;;
56171;SDS011;42052;41.634;-0.946;2023-04-15T02:02:20;4.85;;;1.90;;
56171;SDS011;42052;41.634;-0.946;2023-04-15T02:05:06;4.32;;;1.88;;
56171;SDS011;42052;41.634;-0.946;2023-04-15T02:07:53;4.75;;;1.80;;
56171;SDS011;42052;41.634;-0.946;2023-04-15T02:10:39;4.63;;;1.77;;
56171;SDS011;42052;41.634;-0.946;2023-04-15T02:13:26;4.30;;;1.55;;
56171;SDS011;42052;41.634;-0.946;2023-04-15T02:16:18;5.65;;;1.73;;
56171;SDS011;42052;41.634;-0.946;2023-04-15T02:19:05;4.05;;;1.40;;
56171;SDS011;42052;41.634;-0.946;2023-04-15T02:21:52;6.22;;;1.92;;
56171;SDS011;42052;41.634;-0.946;2023-04-15T02:24:38;4.30;;;1.80;;
56171;SDS011;42052;41.634;-0.946;2023-04-15T02:27:25;3.55;;;1.58;;
56171;SDS011;42052;41.634;-0.946;2023-04-15T02:30:13;6.97;;;2.08;;
56171;SDS011;42052;41.634;-0.946;2023-04-15T02:32:59;4.13;;;1.67;;
56171;SDS011;42052;41.634;-0.946;2023-04-15T02:35:46;5.18;;;1.80;;
56171;SDS011;42052;41.634;-0.946;2023-04-15T02:38:32;4.35;;;1.48;;
56171;SDS011;42052;41.634;-0.946;2023-04-15T02:41:18;4.68;;;1.67;;
56171;SDS011;42052;41.634;-0.946;2023-04-15T02:44:07;3.92;;;1.88;;
56171;SDS011;42052;41.634;-0.946;2023-04-15T02:46:54;5.72;;;1.88;;
56171;SDS011;42052;41.634;-0.946;2023-04-15T02:49:40;4.78;;;1.95;;
56171;SDS011;42052;41.634;-0.946;2023-04-15T02:52:26;6.53;;;1.90;;
56171;SDS011;42052;41.634;-0.946;2023-04-15T02:55:12;6.68;;;2.20;;
56171;SDS011;42052;41.634;-0.946;2023-04-15T02:57:58;4.70;;;1.52;;
56171;SDS011;42052;41.634;-0.946;2023-04-15T03:00:45;6.43;;;1.90;;
56171;SDS011;42052;41.634;-0.946;2023-04-15T03:03:31;5.03;;;1.75;;
56171;SDS011;42052;41.634;-0.946;2023-04-15T03:06:17;5.80;;;1.45;;
56171;SDS011;42052;41.634;-0.946;2023-04-15T03:09:05;4.85;;;1.90;;
56171;SDS011;42052;41.634;-0.946;2023-04-15T03:11:51;4.63;;;1.85;;
56171;SDS011;42052;41.634;-0.946;2023-04-15T03:14:39;3.78;;;1.60;;
56171;SDS011;42052;41.634;-0.946;2023-04-15T03:17:25;5.10;;;1.90;;
56171;SDS011;42052;41.634;-0.946;2023-04-15T03:20:11;5.60;;;1.73;;
56171;SDS011;42052;41.634;-0.946;2023-04-15T03:22:58;6.18;;;1.77;;
56171;SDS011;42052;41.634;-0.946;2023-04-15T03:25:44;4.07;;;1.65;;
56171;SDS011;42052;41.634;-0.946;2023-04-15T03:28:30;5.20;;;1.73;;
56171;SDS011;42052;41.634;-0.946;2023-04-15T03:31:17;3.67;;;1.77;;
56171;SDS011;42052;41.634;-0.946;2023-04-15T03:34:03;4.43;;;1.80;;
56171;SDS011;42052;41.634;-0.946;2023-04-15T03:36:49;4.38;;;1.70;;
56171;SDS011;42052;41.634;-0.946;2023-04-15T03:39:35;4.32;;;1.75;;
56171;SDS011;42052;41.634;-0.946;2023-04-15T03:42:22;5.57;;;1.70;;
56171;SDS011;42052;41.634;-0.946;2023-04-15T03:45:08;4.00;;;1.50;;
56171;SDS011;42052;41.634;-0.946;2023-04-15T03:47:55;4.63;;;1.75;;
56171;SDS011;42052;41.634;-0.946;2023-04-15T03:50:41;6.90;;;1.83;;
56171;SDS011;42052;41.634;-0.946;2023-04-15T03:53:27;3.88;;;1.52;;
56171;SDS011;42052;41.634;-0.946;2023-04-15T03:56:13;4.53;;;1.80;;
56171;SDS011;42052;41.634;-0.946;2023-04-15T03:59:00;4.20;;;1.67;;
56171;SDS011;42052;41.634;-0.946;2023-04-15T04:01:46;4.88;;;1.60;;
56171;SDS011;42052;41.634;-0.946;2023-04-15T04:04:33;3.60;;;1.58;;
56171;SDS011;42052;41.634;-0.946;2023-04-15T04:07:19;4.82;;;2.00;;
56171;SDS011;42052;41.634;-0.946;2023-04-15T04:10:07;5.15;;;2.00;;
56171;SDS011;42052;41.634;-0.946;2023-04-15T04:12:54;4.75;;;1.40;;
56171;SDS011;42052;41.634;-0.946;2023-04-15T04:15:40;7.15;;;1.90;;
56171;SDS011;42052;41.634;-0.946;2023-04-15T04:18:27;4.82;;;1.90;;
56171;SDS011;42052;41.634;-0.946;2023-04-15T04:21:13;5.28;;;1.80;;
56171;SDS011;42052;41.634;-0.946;2023-04-15T04:23:59;4.18;;;1.65;;
56171;SDS011;42052;41.634;-0.946;2023-04-15T04:26:46;4.25;;;1.90;;
56171;SDS011;42052;41.634;-0.946;2023-04-15T04:29:32;4.32;;;1.77;;
56171;SDS011;42052;41.634;-0.946;2023-04-15T04:32:18;4.20;;;1.60;;
56171;SDS011;42052;41.634;-0.946;2023-04-15T04:35:04;5.00;;;1.80;;
56171;SDS011;42052;41.634;-0.946;2023-04-15T04:37:51;5.22;;;1.77;;
56171;SDS011;42052;41.634;-0.946;2023-04-15T04:40:38;5.00;;;1.67;;
56171;SDS011;42052;41.634;-0.946;2023-04-15T04:43:24;5.10;;;1.50;;
56171;SDS011;42052;41.634;-0.946;2023-04-15T04:46:11;4.72;;;1.55;;
56171;SDS011;42052;41.634;-0.946;2023-04-15T04:48:58;4.95;;;1.77;;
56171;SDS011;42052;41.634;-0.946;2023-04-15T04:51:44;4.32;;;1.58;;
56171;SDS011;42052;41.634;-0.946;2023-04-15T04:54:31;5.60;;;1.65;;
56171;SDS011;42052;41.634;-0.946;2023-04-15T04:57:17;4.78;;;2.00;;
56171;SDS011;42052;41.634;-0.946;2023-04-15T05:00:04;3.67;;;1.70;;
56171;SDS011;42052;41.634;-0.946;2023-04-15T05:02:53;6.68;;;1.73;;
56171;SDS011;42052;41.634;-0.946;2023-04-15T05:05:39;4.07;;;1.60;;
56171;SDS011;42052;41.634;-0.946;2023-04-15T05:08:25;3.78;;;1.65;;
56171;SDS011;42052;41.634;-0.946;2023-04-15T05:11:12;3.95;;;1.50;;
56171;SDS011;42052;41.634;-0.946;2023-04-15T05:13:58;4.45;;;1.60;;
56171;SDS011;42052;41.634;-0.946;2023-04-15T05:16:46;3.85;;;1.50;;
56171;SDS011;42052;41.634;-0.946;2023-04-15T05:19:32;4.85;;;1.67;;
56171;SDS011;42052;41.634;-0.946;2023-04-15T05:22:19;5.60;;;1.75;;
56171;SDS011;42052;41.634;-0.946;2023-04-15T05:25:05;3.53;;;1.40;;
56171;SDS011;42052;41.634;-0.946;2023-04-15T05:27:52;5.20;;;1.80;;
56171;SDS011;42052;41.634;-0.946;2023-04-15T05:30:38;6.22;;;1.75;;
56171;SDS011;42052;41.634;-0.946;2023-04-15T05:33:24;5.13;;;1.60;;
56171;SDS011;42052;41.634;-0.946;2023-04-15T05:36:11;3.95;;;1.50;;
56171;SDS011;42052;41.634;-0.946;2023-04-15T05:38:57;6.18;;;1.67;;
56171;SDS011;42052;41.634;-0.946;2023-04-15T05:41:44;4.22;;;1.90;;
56171;SDS011;42052;41.634;-0.946;2023-04-15T05:44:31;3.80;;;1.50;;
56171;SDS011;42052;41.634;-0.946;2023-04-15T05:47:17;5.40;;;1.70;;
56171;SDS011;42052;41.634;-0.946;2023-04-15T05:50:03;5.78;;;1.80;;
56171;SDS011;42052;41.634;-0.946;2023-04-15T05:52:50;4.55;;;1.77;;
56171;SDS011;42052;41.634;-0.946;2023-04-15T05:55:37;3.28;;;1.55;;
56171;SDS011;42052;41.634;-0.946;2023-04-15T05:58:23;3.35;;;1.40;;
56171;SDS011;42052;41.634;-0.946;2023-04-15T06:01:09;4.82;;;1.70;;
56171;SDS011;42052;41.634;-0.946;2023-04-15T06:03:56;3.83;;;1.60;;
56171;SDS011;42052;41.634;-0.946;2023-04-15T06:06:42;2.70;;;1.35;;
56171;SDS011;42052;41.634;-0.946;2023-04-15T06:09:29;5.53;;;1.48;;
56171;SDS011;42052;41.634;-0.946;2023-04-15T06:12:15;4.15;;;1.50;;
56171;SDS011;42052;41.634;-0.946;2023-04-15T06:15:02;5.32;;;1.63;;
56171;SDS011;42052;41.634;-0.946;2023-04-15T06:17:48;5.25;;;1.80;;
56171;SDS011;42052;41.634;-0.946;2023-04-15T06:20:35;6.20;;;1.63;;
56171;SDS011;42052;41.634;-0.946;2023-04-15T06:23:21;4.53;;;1.77;;
56171;SDS011;42052;41.634;-0.946;2023-04-15T06:26:07;5.22;;;1.90;;
56171;SDS011;42052;41.634;-0.946;2023-04-15T06:28:53;5.55;;;1.92;;
56171;SDS011;42052;41.634;-0.946;2023-04-15T06:31:40;3.50;;;1.50;;
56171;SDS011;42052;41.634;-0.946;2023-04-15T06:34:27;3.95;;;1.55;;
56171;SDS011;42052;41.634;-0.946;2023-04-15T06:37:13;4.18;;;1.67;;
56171;SDS011;42052;41.634;-0.946;2023-04-15T06:40:00;4.88;;;1.70;;
56171;SDS011;42052;41.634;-0.946;2023-04-15T06:42:47;4.40;;;1.75;;
56171;SDS011;42052;41.634;-0.946;2023-04-15T06:45:33;4.05;;;1.88;;
56171;SDS011;42052;41.634;-0.946;2023-04-15T06:48:19;3.92;;;1.80;;
56171;SDS011;42052;41.634;-0.946;2023-04-15T06:51:06;5.30;;;1.50;;
56171;SDS011;42052;41.634;-0.946;2023-04-15T06:53:52;4.40;;;1.77;;
56171;SDS011;42052;41.634;-0.946;2023-04-15T06:56:40;4.88;;;1.70;;
56171;SDS011;42052;41.634;-0.946;2023-04-15T06:59:27;6.55;;;1.73;;
56171;SDS011;42052;41.634;-0.946;2023-04-15T07:02:13;5.25;;;1.60;;
56171;SDS011;42052;41.634;-0.946;2023-04-15T07:04:59;5.85;;;1.65;;
56171;SDS011;42052;41.634;-0.946;2023-04-15T07:07:48;4.38;;;1.80;;
56171;SDS011;42052;41.634;-0.946;2023-04-15T07:10:35;4.90;;;1.90;;
56171;SDS011;42052;41.634;-0.946;2023-04-15T07:13:22;4.82;;;1.90;;
56171;SDS011;42052;41.634;-0.946;2023-04-15T07:16:08;8.27;;;1.85;;
56171;SDS011;42052;41.634;-0.946;2023-04-15T07:18:54;4.45;;;1.70;;
56171;SDS011;42052;41.634;-0.946;2023-04-15T07:21:41;5.15;;;1.60;;
56171;SDS011;42052;41.634;-0.946;2023-04-15T07:24:27;4.28;;;1.55;;
56171;SDS011;42052;41.634;-0.946;2023-04-15T07:27:14;7.03;;;1.75;;
56171;SDS011;42052;41.634;-0.946;2023-04-15T07:30:02;5.97;;;1.55;;
56171;SDS011;42052;41.634;-0.946;2023-04-15T07:32:50;7.78;;;1.90;;
56171;SDS011;42052;41.634;-0.946;2023-04-15T07:35:36;8.52;;;1.90;;
56171;SDS011;42052;41.634;-0.946;2023-04-15T07:38:22;6.90;;;2.00;;
56171;SDS011;42052;41.634;-0.946;2023-04-15T07:41:08;8.25;;;2.17;;
56171;SDS011;42052;41.634;-0.946;2023-04-15T07:43:55;8.75;;;1.80;;
56171;SDS011;42052;41.634;-0.946;2023-04-15T07:46:41;5.63;;;1.85;;
56171;SDS011;42052;41.634;-0.946;2023-04-15T07:49:27;5.43;;;1.80;;
56171;SDS011;42052;41.634;-0.946;2023-04-15T07:52:13;5.97;;;1.77;;
56171;SDS011;42052;41.634;-0.946;2023-04-15T07:55:00;8.48;;;1.80;;
56171;SDS011;42052;41.634;-0.946;2023-04-15T07:57:47;6.70;;;2.10;;
56171;SDS011;42052;41.634;-0.946;2023-04-15T08:00:34;11.02;;;2.03;;
56171;SDS011;42052;41.634;-0.946;2023-04-15T08:03:21;7.30;;;1.90;;
56171;SDS011;42052;41.634;-0.946;2023-04-15T08:06:07;8.35;;;1.73;;
56171;SDS011;42052;41.634;-0.946;2023-04-15T08:08:53;5.95;;;1.85;;
56171;SDS011;42052;41.634;-0.946;2023-04-15T08:11:40;6.97;;;1.90;;
56171;SDS011;42052;41.634;-0.946;2023-04-15T08:14:27;7.78;;;2.00;;
56171;SDS011;42052;41.634;-0.946;2023-04-15T08:17:14;7.20;;;2.03;;
56171;SDS011;42052;41.634;-0.946;2023-04-15T08:20:00;8.27;;;2.05;;
56171;SDS011;42052;41.634;-0.946;2023-04-15T08:22:46;10.02;;;1.83;;
56171;SDS011;42052;41.634;-0.946;2023-04-15T08:25:36;6.07;;;1.83;;
56171;SDS011;42052;41.634;-0.946;2023-04-15T08:28:22;7.95;;;1.92;;
56171;SDS011;42052;41.634;-0.946;2023-04-15T08:31:08;6.50;;;1.80;;
56171;SDS011;42052;41.634;-0.946;2023-04-15T08:33:55;5.97;;;1.92;;
56171;SDS011;42052;41.634;-0.946;2023-04-15T08:36:42;9.80;;;1.90;;
56171;SDS011;42052;41.634;-0.946;2023-04-15T08:39:28;7.65;;;1.83;;
56171;SDS011;42052;41.634;-0.946;2023-04-15T08:42:15;7.80;;;2.03;;
56171;SDS011;42052;41.634;-0.946;2023-04-15T08:45:03;6.05;;;1.60;;
56171;SDS011;42052;41.634;-0.946;2023-04-15T08:47:50;6.55;;;1.80;;
56171;SDS011;42052;41.634;-0.946;2023-04-15T08:50:41;5.93;;;1.80;;
56171;SDS011;42052;41.634;-0.946;2023-04-15T08:53:28;5.40;;;1.80;;
56171;SDS011;42052;41.634;-0.946;2023-04-15T08:56:15;6.13;;;1.92;;
56171;SDS011;42052;41.634;-0.946;2023-04-15T08:59:01;8.60;;;1.60;;
56171;SDS011;42052;41.634;-0.946;2023-04-15T09:01:51;6.50;;;1.90;;
56171;SDS011;42052;41.634;-0.946;2023-04-15T09:04:39;6.30;;;1.80;;
56171;SDS011;42052;41.634;-0.946;2023-04-15T09:07:25;8.63;;;2.08;;
56171;SDS011;42052;41.634;-0.946;2023-04-15T09:10:16;4.72;;;1.70;;
56171;SDS011;42052;41.634;-0.946;2023-04-15T09:13:02;6.75;;;2.10;;
56171;SDS011;42052;41.634;-0.946;2023-04-15T09:15:48;6.72;;;2.00;;
56171;SDS011;42052;41.634;-0.946;2023-04-15T09:18:35;10.73;;;2.28;;
56171;SDS011;42052;41.634;-0.946;2023-04-15T09:21:23;6.95;;;2.08;;
56171;SDS011;42052;41.634;-0.946;2023-04-15T09:24:10;8.75;;;2.08;;
56171;SDS011;42052;41.634;-0.946;2023-04-15T09:26:56;7.30;;;2.03;;
56171;SDS011;42052;41.634;-0.946;2023-04-15T09:29:43;8.77;;;2.10;;
56171;SDS011;42052;41.634;-0.946;2023-04-15T09:32:34;7.70;;;1.90;;
56171;SDS011;42052;41.634;-0.946;2023-04-15T09:35:20;7.35;;;1.92;;
56171;SDS011;42052;41.634;-0.946;2023-04-15T09:38:11;13.52;;;2.15;;
56171;SDS011;42052;41.634;-0.946;2023-04-15T09:40:58;6.85;;;2.08;;
56171;SDS011;42052;41.634;-0.946;2023-04-15T09:43:45;8.45;;;1.83;;
56171;SDS011;42052;41.634;-0.946;2023-04-15T09:46:40;6.53;;;1.77;;
56171;SDS011;42052;41.634;-0.946;2023-04-15T09:49:27;6.47;;;1.75;;
56171;SDS011;42052;41.634;-0.946;2023-04-15T09:52:14;6.97;;;2.03;;
56171;SDS011;42052;41.634;-0.946;2023-04-15T09:55:01;8.32;;;1.88;;
56171;SDS011;42052;41.634;-0.946;2023-04-15T09:57:49;9.48;;;2.38;;
56171;SDS011;42052;41.634;-0.946;2023-04-15T10:00:36;6.68;;;1.73;;
56171;SDS011;42052;41.634;-0.946;2023-04-15T10:03:26;5.30;;;1.95;;
56171;SDS011;42052;41.634;-0.946;2023-04-15T10:06:21;14.50;;;2.22;;
56171;SDS011;42052;41.634;-0.946;2023-04-15T10:09:11;9.63;;;2.03;;
56171;SDS011;42052;41.634;-0.946;2023-04-15T10:11:57;8.48;;;1.95;;
56171;SDS011;42052;41.634;-0.946;2023-04-15T10:14:51;7.28;;;2.05;;
56171;SDS011;42052;41.634;-0.946;2023-04-15T10:17:42;7.65;;;1.85;;
56171;SDS011;42052;41.634;-0.946;2023-04-15T10:20:29;6.15;;;2.00;;
56171;SDS011;42052;41.634;-0.946;2023-04-15T10:23:16;5.72;;;1.73;;
56171;SDS011;42052;41.634;-0.946;2023-04-15T10:26:03;7.07;;;2.20;;
56171;SDS011;42052;41.634;-0.946;2023-04-15T10:28:50;6.30;;;1.80;;
56171;SDS011;42052;41.634;-0.946;2023-04-15T10:31:37;7.43;;;1.75;;
56171;SDS011;42052;41.634;-0.946;2023-04-15T10:34:25;7.68;;;1.60;;
56171;SDS011;42052;41.634;-0.946;2023-04-15T10:37:12;8.68;;;1.60;;
56171;SDS011;42052;41.634;-0.946;2023-04-15T10:40:48;8.68;;;1.75;;
56171;SDS011;42052;41.634;-0.946;2023-04-15T10:43:25;6.50;;;1.90;;
56171;SDS011;42052;41.634;-0.946;2023-04-15T10:46:11;4.97;;;1.60;;
56171;SDS011;42052;41.634;-0.946;2023-04-15T10:48:57;6.38;;;1.73;;
56171;SDS011;42052;41.634;-0.946;2023-04-15T10:51:57;3.53;;;1.50;;
56171;SDS011;42052;41.634;-0.946;2023-04-15T10:54:44;8.07;;;1.80;;
56171;SDS011;42052;41.634;-0.946;2023-04-15T10:57:37;6.50;;;1.83;;
56171;SDS011;42052;41.634;-0.946;2023-04-15T11:00:24;5.45;;;1.48;;
56171;SDS011;42052;41.634;-0.946;2023-04-15T11:03:12;5.50;;;1.50;;
56171;SDS011;42052;41.634;-0.946;2023-04-15T11:05:59;4.97;;;1.20;;
56171;SDS011;42052;41.634;-0.946;2023-04-15T11:08:53;4.65;;;1.52;;
56171;SDS011;42052;41.634;-0.946;2023-04-15T11:14:53;5.90;;;1.60;;
56171;SDS011;42052;41.634;-0.946;2023-04-15T11:17:39;4.32;;;1.35;;
56171;SDS011;42052;41.634;-0.946;2023-04-15T11:20:26;4.50;;;1.50;;
56171;SDS011;42052;41.634;-0.946;2023-04-15T11:23:13;4.13;;;1.50;;
56171;SDS011;42052;41.634;-0.946;2023-04-15T11:26:03;5.05;;;1.30;;
56171;SDS011;42052;41.634;-0.946;2023-04-15T11:28:51;5.65;;;1.33;;
56171;SDS011;42052;41.634;-0.946;2023-04-15T11:31:38;5.85;;;1.40;;
56171;SDS011;42052;41.634;-0.946;2023-04-15T11:34:24;4.90;;;1.20;;
56171;SDS011;42052;41.634;-0.946;2023-04-15T11:37:10;6.13;;;1.48;;
56171;SDS011;42052;41.634;-0.946;2023-04-15T11:39:56;5.47;;;1.45;;
56171;SDS011;42052;41.634;-0.946;2023-04-15T11:42:43;4.97;;;1.20;;
56171;SDS011;42052;41.634;-0.946;2023-04-15T11:45:29;8.65;;;1.60;;
56171;SDS011;42052;41.634;-0.946;2023-04-15T11:48:16;5.45;;;1.42;;
56171;SDS011;42052;41.634;-0.946;2023-04-15T11:51:03;6.55;;;1.40;;
56171;SDS011;42052;41.634;-0.946;2023-04-15T11:53:51;5.85;;;1.20;;
56171;SDS011;42052;41.634;-0.946;2023-04-15T11:56:39;8.43;;;1.60;;
56171;SDS011;42052;41.634;-0.946;2023-04-15T11:59:25;4.60;;;1.30;;
56171;SDS011;42052;41.634;-0.946;2023-04-15T12:02:11;7.93;;;1.30;;
56171;SDS011;42052;41.634;-0.946;2023-04-15T12:05:02;6.05;;;1.30;;
56171;SDS011;42052;41.634;-0.946;2023-04-15T12:07:59;5.07;;;1.00;;
56171;SDS011;42052;41.634;-0.946;2023-04-15T12:10:46;4.97;;;1.35;;
56171;SDS011;42052;41.634;-0.946;2023-04-15T12:13:32;5.38;;;1.17;;
56171;SDS011;42052;41.634;-0.946;2023-04-15T12:16:18;4.47;;;1.27;;
56171;SDS011;42052;41.634;-0.946;2023-04-15T12:19:09;6.22;;;1.20;;
56171;SDS011;42052;41.634;-0.946;2023-04-15T12:22:03;8.00;;;1.27;;
56171;SDS011;42052;41.634;-0.946;2023-04-15T12:24:55;5.90;;;1.30;;
56171;SDS011;42052;41.634;-0.946;2023-04-15T12:27:49;3.92;;;1.10;;
56171;SDS011;42052;41.634;-0.946;2023-04-15T12:30:37;4.40;;;1.00;;
56171;SDS011;42052;41.634;-0.946;2023-04-15T12:33:38;3.50;;;0.80;;
56171;SDS011;42052;41.634;-0.946;2023-04-15T12:36:25;4.78;;;1.10;;
56171;SDS011;42052;41.634;-0.946;2023-04-15T12:39:12;4.95;;;1.40;;
56171;SDS011;42052;41.634;-0.946;2023-04-15T12:41:59;3.65;;;0.82;;
56171;SDS011;42052;41.634;-0.946;2023-04-15T12:44:46;4.88;;;1.05;;
56171;SDS011;42052;41.634;-0.946;2023-04-15T12:47:33;3.47;;;1.00;;
56171;SDS011;42052;41.634;-0.946;2023-04-15T12:50:19;5.35;;;0.95;;
56171;SDS011;42052;41.634;-0.946;2023-04-15T12:53:05;4.22;;;0.90;;
56171;SDS011;42052;41.634;-0.946;2023-04-15T12:55:51;5.10;;;1.00;;
56171;SDS011;42052;41.634;-0.946;2023-04-15T12:58:39;3.05;;;0.77;;
56171;SDS011;42052;41.634;-0.946;2023-04-15T13:01:25;2.78;;;0.88;;
56171;SDS011;42052;41.634;-0.946;2023-04-15T13:04:11;4.30;;;0.90;;
56171;SDS011;42052;41.634;-0.946;2023-04-15T13:06:58;3.25;;;0.90;;
56171;SDS011;42052;41.634;-0.946;2023-04-15T13:09:44;3.35;;;1.02;;
56171;SDS011;42052;41.634;-0.946;2023-04-15T13:12:31;3.30;;;0.90;;
56171;SDS011;42052;41.634;-0.946;2023-04-15T13:15:20;4.03;;;0.90;;
56171;SDS011;42052;41.634;-0.946;2023-04-15T13:18:07;3.92;;;0.90;;
56171;SDS011;42052;41.634;-0.946;2023-04-15T13:20:54;3.63;;;1.00;;
56171;SDS011;42052;41.634;-0.946;2023-04-15T13:23:41;2.95;;;0.80;;
56171;SDS011;42052;41.634;-0.946;2023-04-15T13:26:27;3.83;;;0.95;;
56171;SDS011;42052;41.634;-0.946;2023-04-15T13:29:13;4.18;;;0.90;;
56171;SDS011;42052;41.634;-0.946;2023-04-15T13:32:05;2.60;;;0.80;;
56171;SDS011;42052;41.634;-0.946;2023-04-15T13:34:51;2.70;;;0.80;;
56171;SDS011;42052;41.634;-0.946;2023-04-15T13:37:39;4.55;;;0.90;;
56171;SDS011;42052;41.634;-0.946;2023-04-15T13:40:25;2.80;;;0.85;;
56171;SDS011;42052;41.634;-0.946;2023-04-15T13:43:12;3.25;;;0.90;;
56171;SDS011;42052;41.634;-0.946;2023-04-15T13:45:58;5.15;;;0.85;;
56171;SDS011;42052;41.634;-0.946;2023-04-15T13:48:45;4.53;;;0.80;;
56171;SDS011;42052;41.634;-0.946;2023-04-15T13:51:31;3.22;;;0.85;;
56171;SDS011;42052;41.634;-0.946;2023-04-15T13:54:17;3.40;;;0.70;;
56171;SDS011;42052;41.634;-0.946;2023-04-15T13:57:04;3.75;;;1.00;;
56171;SDS011;42052;41.634;-0.946;2023-04-15T13:59:51;2.05;;;0.70;;
56171;SDS011;42052;41.634;-0.946;2023-04-15T14:02:38;4.13;;;0.80;;
56171;SDS011;42052;41.634;-0.946;2023-04-15T14:05:28;2.65;;;0.77;;
56171;SDS011;42052;41.634;-0.946;2023-04-15T14:08:16;5.57;;;0.98;;
56171;SDS011;42052;41.634;-0.946;2023-04-15T14:11:03;2.13;;;0.70;;
56171;SDS011;42052;41.634;-0.946;2023-04-15T14:13:49;3.25;;;0.88;;
56171;SDS011;42052;41.634;-0.946;2023-04-15T14:16:35;2.13;;;0.52;;
56171;SDS011;42052;41.634;-0.946;2023-04-15T14:19:21;2.63;;;0.65;;
56171;SDS011;42052;41.634;-0.946;2023-04-15T14:22:08;3.70;;;0.80;;
56171;SDS011;42052;41.634;-0.946;2023-04-15T14:24:55;3.38;;;0.60;;
56171;SDS011;42052;41.634;-0.946;2023-04-15T14:27:41;4.65;;;0.98;;
56171;SDS011;42052;41.634;-0.946;2023-04-15T14:30:27;2.85;;;0.63;;
56171;SDS011;42052;41.634;-0.946;2023-04-15T14:33:13;2.90;;;0.65;;
56171;SDS011;42052;41.634;-0.946;2023-04-15T14:36:00;4.97;;;0.80;;
56171;SDS011;42052;41.634;-0.946;2023-04-15T14:38:47;1.70;;;0.50;;
56171;SDS011;42052;41.634;-0.946;2023-04-15T14:41:33;3.33;;;0.68;;
56171;SDS011;42052;41.634;-0.946;2023-04-15T14:44:20;2.83;;;0.60;;
56171;SDS011;42052;41.634;-0.946;2023-04-15T14:47:06;3.00;;;0.73;;
56171;SDS011;42052;41.634;-0.946;2023-04-15T14:49:53;2.50;;;0.60;;
56171;SDS011;42052;41.634;-0.946;2023-04-15T14:52:39;3.00;;;0.70;;
56171;SDS011;42052;41.634;-0.946;2023-04-15T14:55:25;3.03;;;0.60;;
56171;SDS011;42052;41.634;-0.946;2023-04-15T14:58:12;1.70;;;0.60;;
56171;SDS011;42052;41.634;-0.946;2023-04-15T15:00:58;2.92;;;0.93;;
56171;SDS011;42052;41.634;-0.946;2023-04-15T15:03:46;4.75;;;0.65;;
56171;SDS011;42052;41.634;-0.946;2023-04-15T15:06:33;2.33;;;0.65;;
56171;SDS011;42052;41.634;-0.946;2023-04-15T15:09:20;3.42;;;0.77;;
56171;SDS011;42052;41.634;-0.946;2023-04-15T15:12:08;2.58;;;0.70;;
56171;SDS011;42052;41.634;-0.946;2023-04-15T15:14:56;3.10;;;0.93;;
56171;SDS011;42052;41.634;-0.946;2023-04-15T15:17:42;2.15;;;0.70;;
56171;SDS011;42052;41.634;-0.946;2023-04-15T15:20:28;2.92;;;0.80;;
56171;SDS011;42052;41.634;-0.946;2023-04-15T15:23:15;2.85;;;0.65;;
56171;SDS011;42052;41.634;-0.946;2023-04-15T15:26:02;3.28;;;0.80;;
56171;SDS011;42052;41.634;-0.946;2023-04-15T15:28:48;2.53;;;0.52;;
56171;SDS011;42052;41.634;-0.946;2023-04-15T15:31:35;2.70;;;0.70;;
56171;SDS011;42052;41.634;-0.946;2023-04-15T15:34:21;1.67;;;0.60;;
56171;SDS011;42052;41.634;-0.946;2023-04-15T15:37:07;1.25;;;0.68;;
56171;SDS011;42052;41.634;-0.946;2023-04-15T15:39:53;2.10;;;0.80;;
56171;SDS011;42052;41.634;-0.946;2023-04-15T15:42:41;3.17;;;0.80;;
56171;SDS011;42052;41.634;-0.946;2023-04-15T15:45:27;3.30;;;0.70;;
56171;SDS011;42052;41.634;-0.946;2023-04-15T15:48:14;2.15;;;0.70;;
56171;SDS011;42052;41.634;-0.946;2023-04-15T15:51:01;3.47;;;0.73;;
56171;SDS011;42052;41.634;-0.946;2023-04-15T15:53:48;1.90;;;0.50;;
56171;SDS011;42052;41.634;-0.946;2023-04-15T15:56:34;2.67;;;0.73;;
56171;SDS011;42052;41.634;-0.946;2023-04-15T15:59:23;2.53;;;0.65;;
56171;SDS011;42052;41.634;-0.946;2023-04-15T16:02:12;3.08;;;0.88;;
56171;SDS011;42052;41.634;-0.946;2023-04-15T16:04:58;2.00;;;0.60;;
56171;SDS011;42052;41.634;-0.946;2023-04-15T16:07:45;3.38;;;0.60;;
56171;SDS011;42052;41.634;-0.946;2023-04-15T16:10:31;3.28;;;0.90;;
56171;SDS011;42052;41.634;-0.946;2023-04-15T16:13:17;2.90;;;0.65;;
56171;SDS011;42052;41.634;-0.946;2023-04-15T16:16:04;3.80;;;0.57;;
56171;SDS011;42052;41.634;-0.946;2023-04-15T16:18:57;3.08;;;0.50;;
56171;SDS011;42052;41.634;-0.946;2023-04-15T16:21:43;4.43;;;0.80;;
56171;SDS011;42052;41.634;-0.946;2023-04-15T16:24:29;2.80;;;0.73;;
56171;SDS011;42052;41.634;-0.946;2023-04-15T16:27:17;3.95;;;0.80;;
56171;SDS011;42052;41.634;-0.946;2023-04-15T16:30:04;3.45;;;0.60;;
56171;SDS011;42052;41.634;-0.946;2023-04-15T16:32:51;4.40;;;0.70;;
56171;SDS011;42052;41.634;-0.946;2023-04-15T16:35:37;5.03;;;0.57;;